sensor_id;sensor_type;location;lat;lon;timestamp;pressure;altitude;pressure_sealevel;temperature;humidity
48862;BME280;34681;49.188;-0.374;2023-05-02T00:00:33;102020.94;;;15.18;62.23
48862;BME280;34681;49.188;-0.374;2023-05-02T00:03:00;102023.41;;;15.11;62.25
48862;BME280;34681;49.188;-0.374;2023-05-02T00:05:25;102015.44;;;15.18;62.02
48862;BME280;34681;49.188;-0.374;2023-05-02T00:07:51;102019.94;;;15.19;61.90
48862;BME280;34681;49.188;-0.374;2023-05-02T00:10:17;102016.31;;;15.18;61.80
48862;BME280;34681;49.188;-0.374;2023-05-02T00:12:42;102017.47;;;15.16;61.78
48862;BME280;34681;49.188;-0.374;2023-05-02T00:15:08;102009.78;;;15.10;61.92
48862;BME280;34681;49.188;-0.374;2023-05-02T00:17:33;102001.81;;;15.07;61.99
48862;BME280;34681;49.188;-0.374;2023-05-02T00:19:59;102015.72;;;15.05;62.59
48862;BME280;34681;49.188;-0.374;2023-05-02T00:22:24;102012.69;;;15.08;61.92
48862;BME280;34681;49.188;-0.374;2023-05-02T00:24:55;102010.50;;;15.02;62.30
48862;BME280;34681;49.188;-0.374;2023-05-02T00:27:20;102007.59;;;15.04;62.30
48862;BME280;34681;49.188;-0.374;2023-05-02T00:29:45;102002.22;;;15.02;62.09
48862;BME280;34681;49.188;-0.374;2023-05-02T00:32:12;102001.38;;;15.02;62.11
48862;BME280;34681;49.188;-0.374;2023-05-02T00:34:37;102010.34;;;15.04;62.11
48862;BME280;34681;49.188;-0.374;2023-05-02T00:37:02;102015.88;;;14.94;62.21
48862;BME280;34681;49.188;-0.374;2023-05-02T00:39:28;102007.03;;;15.00;62.11
48862;BME280;34681;49.188;-0.374;2023-05-02T00:41:57;102019.78;;;15.01;61.99
48862;BME280;34681;49.188;-0.374;2023-05-02T00:44:22;102009.63;;;14.92;62.23
48862;BME280;34681;49.188;-0.374;2023-05-02T00:46:47;102009.19;;;14.87;62.39
48862;BME280;34681;49.188;-0.374;2023-05-02T00:49:13;102010.66;;;14.81;62.62
48862;BME280;34681;49.188;-0.374;2023-05-02T00:51:39;102011.53;;;14.82;62.42
48862;BME280;34681;49.188;-0.374;2023-05-02T00:54:04;102007.00;;;14.71;62.76
48862;BME280;34681;49.188;-0.374;2023-05-02T00:56:30;102005.41;;;14.88;62.28
48862;BME280;34681;49.188;-0.374;2023-05-02T00:58:55;102009.63;;;14.82;62.33
48862;BME280;34681;49.188;-0.374;2023-05-02T01:09:26;102008.72;;;14.72;63.08
48862;BME280;34681;49.188;-0.374;2023-05-02T01:12:00;102007.75;;;14.73;62.91
48862;BME280;34681;49.188;-0.374;2023-05-02T01:14:30;102005.09;;;14.72;62.73
48862;BME280;34681;49.188;-0.374;2023-05-02T01:16:57;102016.28;;;14.60;63.43
48862;BME280;34681;49.188;-0.374;2023-05-02T01:19:31;101999.19;;;14.67;63.24
48862;BME280;34681;49.188;-0.374;2023-05-02T01:22:01;102001.22;;;14.65;63.19
48862;BME280;34681;49.188;-0.374;2023-05-02T01:24:31;101999.91;;;14.69;63.32
48862;BME280;34681;49.188;-0.374;2023-05-02T01:27:30;101995.25;;;14.69;63.17
48862;BME280;34681;49.188;-0.374;2023-05-02T01:29:58;101993.66;;;14.57;63.70
48862;BME280;34681;49.188;-0.374;2023-05-02T01:32:26;101988.88;;;14.59;63.80
48862;BME280;34681;49.188;-0.374;2023-05-02T01:34:55;101995.25;;;14.59;63.66
48862;BME280;34681;49.188;-0.374;2023-05-02T01:37:23;101989.75;;;14.59;63.74
48862;BME280;34681;49.188;-0.374;2023-05-02T01:39:51;101991.34;;;14.62;63.63
48862;BME280;34681;49.188;-0.374;2023-05-02T01:42:19;101996.84;;;14.62;63.51
48862;BME280;34681;49.188;-0.374;2023-05-02T01:44:46;101990.75;;;14.58;63.75
48862;BME280;34681;49.188;-0.374;2023-05-02T01:47:12;101989.19;;;14.75;62.65
48862;BME280;34681;49.188;-0.374;2023-05-02T01:49:40;101989.44;;;14.63;63.49
48862;BME280;34681;49.188;-0.374;2023-05-02T01:52:10;101996.28;;;14.58;63.49
48862;BME280;34681;49.188;-0.374;2023-05-02T01:54:37;102001.94;;;14.57;62.83
48862;BME280;34681;49.188;-0.374;2023-05-02T01:57:05;102001.28;;;14.44;63.60
48862;BME280;34681;49.188;-0.374;2023-05-02T01:59:32;102002.63;;;14.49;63.26
48862;BME280;34681;49.188;-0.374;2023-05-02T02:02:00;102003.06;;;14.54;62.90
48862;BME280;34681;49.188;-0.374;2023-05-02T02:04:27;102006.09;;;14.51;63.07
48862;BME280;34681;49.188;-0.374;2023-05-02T02:07:02;102008.25;;;14.48;63.07
48862;BME280;34681;49.188;-0.374;2023-05-02T02:09:29;102009.06;;;14.39;63.16
48862;BME280;34681;49.188;-0.374;2023-05-02T02:12:02;102021.41;;;14.44;63.10
48862;BME280;34681;49.188;-0.374;2023-05-02T02:14:37;102014.78;;;14.47;63.06
48862;BME280;34681;49.188;-0.374;2023-05-02T02:17:12;102026.75;;;14.36;63.35
48862;BME280;34681;49.188;-0.374;2023-05-02T02:19:40;102022.69;;;14.30;63.36
48862;BME280;34681;49.188;-0.374;2023-05-02T02:22:07;102026.03;;;14.34;63.19
48862;BME280;34681;49.188;-0.374;2023-05-02T02:24:35;102020.06;;;14.29;63.30
48862;BME280;34681;49.188;-0.374;2023-05-02T02:27:01;102024.13;;;14.25;63.34
48862;BME280;34681;49.188;-0.374;2023-05-02T02:29:26;102023.84;;;14.28;62.69
48862;BME280;34681;49.188;-0.374;2023-05-02T02:31:52;102030.19;;;14.19;63.41
48862;BME280;34681;49.188;-0.374;2023-05-02T02:34:18;102039.16;;;14.21;63.42
48862;BME280;34681;49.188;-0.374;2023-05-02T02:36:48;102038.91;;;14.24;62.93
48862;BME280;34681;49.188;-0.374;2023-05-02T02:39:31;102040.31;;;14.18;63.04
48862;BME280;34681;49.188;-0.374;2023-05-02T02:42:14;102039.59;;;14.16;63.18
48862;BME280;34681;49.188;-0.374;2023-05-02T02:45:21;102040.00;;;14.12;63.44
48862;BME280;34681;49.188;-0.374;2023-05-02T02:48:18;102047.03;;;13.95;63.77
48862;BME280;34681;49.188;-0.374;2023-05-02T02:53:36;102043.97;;;13.98;63.74
48862;BME280;34681;49.188;-0.374;2023-05-02T02:56:14;102049.22;;;14.01;63.60
48862;BME280;34681;49.188;-0.374;2023-05-02T02:58:46;102045.59;;;14.00;63.64
48862;BME280;34681;49.188;-0.374;2023-05-02T03:01:17;102052.25;;;13.98;63.51
48862;BME280;34681;49.188;-0.374;2023-05-02T03:03:44;102049.91;;;13.93;63.90
48862;BME280;34681;49.188;-0.374;2023-05-02T03:06:11;102059.03;;;13.94;63.70
48862;BME280;34681;49.188;-0.374;2023-05-02T03:08:41;102055.13;;;13.96;63.53
48862;BME280;34681;49.188;-0.374;2023-05-02T03:11:07;102047.16;;;13.93;63.74
48862;BME280;34681;49.188;-0.374;2023-05-02T03:13:34;102045.13;;;13.95;63.64
48862;BME280;34681;49.188;-0.374;2023-05-02T03:18:38;102057.56;;;13.90;63.53
48862;BME280;34681;49.188;-0.374;2023-05-02T03:21:04;102058.84;;;13.86;63.42
48862;BME280;34681;49.188;-0.374;2023-05-02T03:23:29;102061.66;;;13.95;63.16
48862;BME280;34681;49.188;-0.374;2023-05-02T03:25:55;102063.97;;;13.90;63.08
48862;BME280;34681;49.188;-0.374;2023-05-02T03:28:20;102058.13;;;13.84;63.31
48862;BME280;34681;49.188;-0.374;2023-05-02T03:30:45;102060.13;;;13.82;63.51
48862;BME280;34681;49.188;-0.374;2023-05-02T03:33:11;102067.50;;;13.81;63.58
48862;BME280;34681;49.188;-0.374;2023-05-02T03:35:36;102067.50;;;13.81;63.57
48862;BME280;34681;49.188;-0.374;2023-05-02T03:38:01;102072.03;;;13.82;63.35
48862;BME280;34681;49.188;-0.374;2023-05-02T03:40:27;102068.50;;;13.80;63.36
48862;BME280;34681;49.188;-0.374;2023-05-02T03:42:52;102070.69;;;13.76;63.45
48862;BME280;34681;49.188;-0.374;2023-05-02T03:45:17;102067.63;;;13.80;63.28
48862;BME280;34681;49.188;-0.374;2023-05-02T03:47:43;102077.03;;;13.77;63.17
48862;BME280;34681;49.188;-0.374;2023-05-02T03:50:08;102080.66;;;13.77;63.41
48862;BME280;34681;49.188;-0.374;2023-05-02T03:52:34;102072.06;;;13.71;63.60
48862;BME280;34681;49.188;-0.374;2023-05-02T03:55:00;102070.06;;;13.73;63.53
48862;BME280;34681;49.188;-0.374;2023-05-02T03:57:28;102070.56;;;13.57;63.80
48862;BME280;34681;49.188;-0.374;2023-05-02T03:59:54;102064.97;;;13.68;63.47
48862;BME280;34681;49.188;-0.374;2023-05-02T04:02:19;102061.81;;;13.73;63.42
48862;BME280;34681;49.188;-0.374;2023-05-02T04:04:45;102070.47;;;13.68;63.46
48862;BME280;34681;49.188;-0.374;2023-05-02T04:07:10;102070.75;;;13.65;63.79
48862;BME280;34681;49.188;-0.374;2023-05-02T04:09:42;102070.63;;;13.67;63.50
48862;BME280;34681;49.188;-0.374;2023-05-02T04:12:07;102069.75;;;13.66;63.81
48862;BME280;34681;49.188;-0.374;2023-05-02T04:14:32;102069.28;;;13.61;63.70
48862;BME280;34681;49.188;-0.374;2023-05-02T04:16:58;102067.38;;;13.62;63.70
48862;BME280;34681;49.188;-0.374;2023-05-02T04:19:23;102075.25;;;13.66;63.44
48862;BME280;34681;49.188;-0.374;2023-05-02T04:21:48;102072.88;;;13.62;63.28
48862;BME280;34681;49.188;-0.374;2023-05-02T04:24:14;102076.94;;;13.58;63.54
48862;BME280;34681;49.188;-0.374;2023-05-02T04:26:39;102079.78;;;13.56;63.50
48862;BME280;34681;49.188;-0.374;2023-05-02T04:29:06;102072.34;;;13.47;63.80
48862;BME280;34681;49.188;-0.374;2023-05-02T04:31:31;102074.09;;;13.48;63.92
48862;BME280;34681;49.188;-0.374;2023-05-02T04:33:57;102078.19;;;13.54;63.92
48862;BME280;34681;49.188;-0.374;2023-05-02T04:36:23;102078.66;;;13.59;63.47
48862;BME280;34681;49.188;-0.374;2023-05-02T04:38:49;102069.13;;;13.63;63.51
48862;BME280;34681;49.188;-0.374;2023-05-02T04:41:14;102077.00;;;13.67;63.24
48862;BME280;34681;49.188;-0.374;2023-05-02T04:43:39;102078.44;;;13.71;63.20
48862;BME280;34681;49.188;-0.374;2023-05-02T04:46:05;102099.00;;;13.67;63.34
48862;BME280;34681;49.188;-0.374;2023-05-02T04:48:30;102088.25;;;13.64;63.64
48862;BME280;34681;49.188;-0.374;2023-05-02T04:50:56;102090.19;;;13.73;63.24
48862;BME280;34681;49.188;-0.374;2023-05-02T04:53:21;102090.84;;;13.87;62.76
48862;BME280;34681;49.188;-0.374;2023-05-02T04:55:47;102093.88;;;13.84;62.87
48862;BME280;34681;49.188;-0.374;2023-05-02T04:58:13;102094.13;;;13.81;62.82
48862;BME280;34681;49.188;-0.374;2023-05-02T05:00:38;102099.72;;;13.90;62.29
48862;BME280;34681;49.188;-0.374;2023-05-02T05:03:03;102097.59;;;14.03;62.25
48862;BME280;34681;49.188;-0.374;2023-05-02T05:05:30;102102.91;;;14.16;61.83
48862;BME280;34681;49.188;-0.374;2023-05-02T05:07:56;102101.28;;;14.14;61.73
48862;BME280;34681;49.188;-0.374;2023-05-02T05:10:21;102107.78;;;14.13;61.73
48862;BME280;34681;49.188;-0.374;2023-05-02T05:12:46;102115.00;;;14.34;61.91
48862;BME280;34681;49.188;-0.374;2023-05-02T05:15:14;102114.78;;;14.47;61.50
48862;BME280;34681;49.188;-0.374;2023-05-02T05:17:39;102116.44;;;14.59;61.24
48862;BME280;34681;49.188;-0.374;2023-05-02T05:20:05;102116.19;;;14.72;60.71
48862;BME280;34681;49.188;-0.374;2023-05-02T05:22:37;102122.41;;;14.65;60.60
48862;BME280;34681;49.188;-0.374;2023-05-02T05:25:03;102120.38;;;14.57;60.82
48862;BME280;34681;49.188;-0.374;2023-05-02T05:27:29;102124.88;;;14.68;60.16
48862;BME280;34681;49.188;-0.374;2023-05-02T05:29:54;102128.56;;;14.87;59.90
48862;BME280;34681;49.188;-0.374;2023-05-02T05:32:19;102127.69;;;14.87;59.58
48862;BME280;34681;49.188;-0.374;2023-05-02T05:34:50;102129.94;;;14.72;60.46
48862;BME280;34681;49.188;-0.374;2023-05-02T05:37:16;102132.31;;;14.77;59.99
48862;BME280;34681;49.188;-0.374;2023-05-02T05:39:41;102127.81;;;14.85;59.70
48862;BME280;34681;49.188;-0.374;2023-05-02T05:42:06;102134.66;;;14.91;59.97
48862;BME280;34681;49.188;-0.374;2023-05-02T05:44:34;102143.53;;;15.04;59.42
48862;BME280;34681;49.188;-0.374;2023-05-02T05:46:59;102144.81;;;14.91;59.81
48862;BME280;34681;49.188;-0.374;2023-05-02T05:49:24;102149.66;;;15.17;59.23
48862;BME280;34681;49.188;-0.374;2023-05-02T05:51:50;102143.75;;;15.41;58.97
48862;BME280;34681;49.188;-0.374;2023-05-02T05:54:16;102146.13;;;16.32;57.27
48862;BME280;34681;49.188;-0.374;2023-05-02T05:56:41;102155.09;;;19.25;50.68
48862;BME280;34681;49.188;-0.374;2023-05-02T05:59:06;102158.75;;;21.66;45.18
48862;BME280;34681;49.188;-0.374;2023-05-02T06:01:32;102159.59;;;22.94;42.50
48862;BME280;34681;49.188;-0.374;2023-05-02T06:03:58;102168.72;;;24.18;40.67
48862;BME280;34681;49.188;-0.374;2023-05-02T06:06:23;102166.38;;;25.18;38.75
48862;BME280;34681;49.188;-0.374;2023-05-02T06:08:48;102170.91;;;26.00;36.79
48862;BME280;34681;49.188;-0.374;2023-05-02T06:11:14;102182.78;;;26.36;36.19
48862;BME280;34681;49.188;-0.374;2023-05-02T06:13:39;102171.97;;;26.59;35.84
48862;BME280;34681;49.188;-0.374;2023-05-02T06:16:04;102178.16;;;27.07;35.25
48862;BME280;34681;49.188;-0.374;2023-05-02T06:18:30;102174.78;;;27.75;33.59
48862;BME280;34681;49.188;-0.374;2023-05-02T06:20:56;102175.84;;;27.81;33.87
48862;BME280;34681;49.188;-0.374;2023-05-02T06:23:21;102174.53;;;28.40;32.97
48862;BME280;34681;49.188;-0.374;2023-05-02T06:25:47;102173.06;;;28.06;33.36
48862;BME280;34681;49.188;-0.374;2023-05-02T06:28:12;102171.59;;;28.21;33.64
48862;BME280;34681;49.188;-0.374;2023-05-02T06:30:37;102178.34;;;28.89;32.72
48862;BME280;34681;49.188;-0.374;2023-05-02T06:33:04;102183.00;;;28.58;32.90
48862;BME280;34681;49.188;-0.374;2023-05-02T06:35:29;102190.41;;;29.14;33.03
48862;BME280;34681;49.188;-0.374;2023-05-02T06:37:54;102187.06;;;29.05;32.61
48862;BME280;34681;49.188;-0.374;2023-05-02T06:40:20;102198.88;;;30.58;30.70
48862;BME280;34681;49.188;-0.374;2023-05-02T06:42:45;102193.09;;;31.51;29.23
48862;BME280;34681;49.188;-0.374;2023-05-02T06:45:11;102196.50;;;31.37;29.03
48862;BME280;34681;49.188;-0.374;2023-05-02T06:47:36;102189.84;;;31.19;28.82
48862;BME280;34681;49.188;-0.374;2023-05-02T06:50:01;102204.84;;;32.67;26.86
48862;BME280;34681;49.188;-0.374;2023-05-02T06:52:28;102203.16;;;33.93;26.38
48862;BME280;34681;49.188;-0.374;2023-05-02T06:54:53;102197.91;;;35.23;24.29
48862;BME280;34681;49.188;-0.374;2023-05-02T06:57:18;102209.59;;;36.55;23.13
48862;BME280;34681;49.188;-0.374;2023-05-02T06:59:44;102205.75;;;37.26;22.09
48862;BME280;34681;49.188;-0.374;2023-05-02T07:02:09;102214.25;;;37.96;21.44
48862;BME280;34681;49.188;-0.374;2023-05-02T07:04:35;102208.94;;;38.58;20.73
48862;BME280;34681;49.188;-0.374;2023-05-02T07:07:00;102207.41;;;39.42;19.33
48862;BME280;34681;49.188;-0.374;2023-05-02T07:09:26;102196.63;;;39.96;19.54
48862;BME280;34681;49.188;-0.374;2023-05-02T07:11:51;102200.66;;;40.65;18.91
48862;BME280;34681;49.188;-0.374;2023-05-02T07:14:16;102198.06;;;41.10;18.50
48862;BME280;34681;49.188;-0.374;2023-05-02T07:16:42;102195.84;;;41.84;17.69
48862;BME280;34681;49.188;-0.374;2023-05-02T07:19:07;102197.06;;;42.28;17.73
48862;BME280;34681;49.188;-0.374;2023-05-02T07:21:32;102197.25;;;42.85;17.43
48862;BME280;34681;49.188;-0.374;2023-05-02T07:23:58;102194.06;;;42.33;17.62
48862;BME280;34681;49.188;-0.374;2023-05-02T07:26:23;102193.84;;;43.05;16.79
48862;BME280;34681;49.188;-0.374;2023-05-02T07:28:49;102187.75;;;43.07;16.91
48862;BME280;34681;49.188;-0.374;2023-05-02T07:31:14;102185.41;;;43.17;16.69
48862;BME280;34681;49.188;-0.374;2023-05-02T07:33:40;102192.50;;;43.77;16.24
48862;BME280;34681;49.188;-0.374;2023-05-02T07:36:05;102185.59;;;44.21;15.94
48862;BME280;34681;49.188;-0.374;2023-05-02T07:38:30;102181.94;;;45.06;15.39
48862;BME280;34681;49.188;-0.374;2023-05-02T07:40:59;102182.28;;;45.63;14.91
48862;BME280;34681;49.188;-0.374;2023-05-02T07:43:25;102184.78;;;46.94;14.29
48862;BME280;34681;49.188;-0.374;2023-05-02T07:45:51;102187.81;;;47.87;13.82
48862;BME280;34681;49.188;-0.374;2023-05-02T07:48:16;102181.03;;;47.30;13.38
48862;BME280;34681;49.188;-0.374;2023-05-02T07:50:41;102179.94;;;47.10;13.63
48862;BME280;34681;49.188;-0.374;2023-05-02T07:53:07;102174.88;;;46.16;14.29
48862;BME280;34681;49.188;-0.374;2023-05-02T07:55:32;102178.41;;;45.30;14.73
48862;BME280;34681;49.188;-0.374;2023-05-02T07:57:58;102179.00;;;45.15;15.17
48862;BME280;34681;49.188;-0.374;2023-05-02T08:00:23;102177.13;;;45.78;14.78
48862;BME280;34681;49.188;-0.374;2023-05-02T08:02:48;102180.81;;;45.28;14.98
48862;BME280;34681;49.188;-0.374;2023-05-02T08:05:14;102169.22;;;44.43;15.86
48862;BME280;34681;49.188;-0.374;2023-05-02T08:07:39;102181.16;;;44.15;15.68
48862;BME280;34681;49.188;-0.374;2023-05-02T08:10:05;102171.81;;;43.92;15.61
48862;BME280;34681;49.188;-0.374;2023-05-02T08:12:31;102160.25;;;41.94;16.22
48862;BME280;34681;49.188;-0.374;2023-05-02T08:14:56;102161.50;;;43.08;16.64
48862;BME280;34681;49.188;-0.374;2023-05-02T08:17:22;102166.09;;;43.18;16.21
48862;BME280;34681;49.188;-0.374;2023-05-02T08:19:47;102164.69;;;42.98;16.11
48862;BME280;34681;49.188;-0.374;2023-05-02T08:22:12;102162.16;;;43.62;16.05
48862;BME280;34681;49.188;-0.374;2023-05-02T08:24:38;102158.13;;;43.15;15.70
48862;BME280;34681;49.188;-0.374;2023-05-02T08:27:03;102164.34;;;43.00;15.81
48862;BME280;34681;49.188;-0.374;2023-05-02T08:29:29;102155.22;;;42.13;17.03
48862;BME280;34681;49.188;-0.374;2023-05-02T08:31:55;102162.03;;;42.03;17.78
48862;BME280;34681;49.188;-0.374;2023-05-02T08:34:21;102157.59;;;41.97;17.19
48862;BME280;34681;49.188;-0.374;2023-05-02T08:36:46;102162.31;;;41.43;17.54
48862;BME280;34681;49.188;-0.374;2023-05-02T08:39:12;102161.34;;;40.65;18.18
48862;BME280;34681;49.188;-0.374;2023-05-02T08:41:37;102151.16;;;39.32;19.02
48862;BME280;34681;49.188;-0.374;2023-05-02T08:44:04;102155.50;;;38.24;19.94
48862;BME280;34681;49.188;-0.374;2023-05-02T08:46:31;102156.69;;;37.79;21.01
48862;BME280;34681;49.188;-0.374;2023-05-02T08:49:00;102159.94;;;38.93;20.11
48862;BME280;34681;49.188;-0.374;2023-05-02T08:51:26;102163.50;;;39.04;20.07
48862;BME280;34681;49.188;-0.374;2023-05-02T08:53:53;102155.44;;;37.51;20.49
48862;BME280;34681;49.188;-0.374;2023-05-02T08:56:19;102163.41;;;35.87;22.51
48862;BME280;34681;49.188;-0.374;2023-05-02T08:58:45;102156.75;;;34.88;23.25
48862;BME280;34681;49.188;-0.374;2023-05-02T09:01:15;102157.56;;;34.04;23.97
48862;BME280;34681;49.188;-0.374;2023-05-02T09:03:46;102151.47;;;33.64;24.87
48862;BME280;34681;49.188;-0.374;2023-05-02T09:06:19;102148.59;;;31.75;26.34
48862;BME280;34681;49.188;-0.374;2023-05-02T09:08:47;102146.22;;;30.87;28.09
48862;BME280;34681;49.188;-0.374;2023-05-02T09:11:19;102146.81;;;31.41;28.36
48862;BME280;34681;49.188;-0.374;2023-05-02T09:13:45;102150.28;;;31.59;28.15
48862;BME280;34681;49.188;-0.374;2023-05-02T09:16:16;102149.75;;;30.12;29.72
48862;BME280;34681;49.188;-0.374;2023-05-02T09:18:45;102151.69;;;29.58;29.99
48862;BME280;34681;49.188;-0.374;2023-05-02T09:21:19;102155.72;;;28.95;31.32
48862;BME280;34681;49.188;-0.374;2023-05-02T09:23:50;102158.78;;;28.94;31.00
48862;BME280;34681;49.188;-0.374;2023-05-02T09:28:53;102164.34;;;30.09;29.68
48862;BME280;34681;49.188;-0.374;2023-05-02T09:31:26;102158.22;;;30.12;29.67
48862;BME280;34681;49.188;-0.374;2023-05-02T09:33:52;102165.22;;;28.39;32.22
48862;BME280;34681;49.188;-0.374;2023-05-02T09:36:20;102158.78;;;27.76;32.51
48862;BME280;34681;49.188;-0.374;2023-05-02T09:38:47;102160.38;;;27.58;33.13
48862;BME280;34681;49.188;-0.374;2023-05-02T09:41:12;102160.84;;;28.43;32.50
48862;BME280;34681;49.188;-0.374;2023-05-02T09:43:38;102158.41;;;29.08;32.25
48862;BME280;34681;49.188;-0.374;2023-05-02T09:46:09;102165.31;;;29.43;32.08
48862;BME280;34681;49.188;-0.374;2023-05-02T09:48:54;102166.25;;;26.99;34.55
48862;BME280;34681;49.188;-0.374;2023-05-02T09:51:21;102164.44;;;26.33;34.64
48862;BME280;34681;49.188;-0.374;2023-05-02T09:53:47;102169.53;;;25.63;37.03
48862;BME280;34681;49.188;-0.374;2023-05-02T09:56:13;102180.31;;;23.72;40.73
48862;BME280;34681;49.188;-0.374;2023-05-02T09:58:39;102185.88;;;23.50;41.75
48862;BME280;34681;49.188;-0.374;2023-05-02T10:01:04;102173.44;;;23.02;41.98
48862;BME280;34681;49.188;-0.374;2023-05-02T10:03:30;102179.41;;;22.69;42.63
48862;BME280;34681;49.188;-0.374;2023-05-02T10:05:57;102179.38;;;22.02;44.13
48862;BME280;34681;49.188;-0.374;2023-05-02T10:08:26;102186.81;;;22.10;42.60
48862;BME280;34681;49.188;-0.374;2023-05-02T10:10:55;102192.97;;;21.74;44.03
48862;BME280;34681;49.188;-0.374;2023-05-02T10:13:22;102187.94;;;21.93;44.55
48862;BME280;34681;49.188;-0.374;2023-05-02T10:16:03;102188.28;;;22.88;42.19
48862;BME280;34681;49.188;-0.374;2023-05-02T10:18:40;102191.63;;;22.98;41.92
48862;BME280;34681;49.188;-0.374;2023-05-02T10:21:10;102190.94;;;22.52;41.44
48862;BME280;34681;49.188;-0.374;2023-05-02T10:23:40;102202.25;;;21.67;43.61
48862;BME280;34681;49.188;-0.374;2023-05-02T10:26:07;102191.97;;;22.36;42.76
48862;BME280;34681;49.188;-0.374;2023-05-02T10:28:33;102193.19;;;23.01;40.34
48862;BME280;34681;49.188;-0.374;2023-05-02T10:30:59;102201.47;;;22.94;40.96
48862;BME280;34681;49.188;-0.374;2023-05-02T10:33:27;102197.13;;;22.01;41.48
48862;BME280;34681;49.188;-0.374;2023-05-02T10:35:54;102199.78;;;22.55;40.66
48862;BME280;34681;49.188;-0.374;2023-05-02T10:38:20;102203.84;;;23.26;37.33
48862;BME280;34681;49.188;-0.374;2023-05-02T10:40:55;102206.28;;;22.85;39.17
48862;BME280;34681;49.188;-0.374;2023-05-02T10:43:29;102200.19;;;23.26;38.68
48862;BME280;34681;49.188;-0.374;2023-05-02T10:45:55;102215.13;;;23.54;39.63
48862;BME280;34681;49.188;-0.374;2023-05-02T10:48:22;102211.88;;;23.51;40.13
48862;BME280;34681;49.188;-0.374;2023-05-02T10:50:58;102216.53;;;23.14;39.03
48862;BME280;34681;49.188;-0.374;2023-05-02T10:53:34;102216.72;;;23.27;40.08
48862;BME280;34681;49.188;-0.374;2023-05-02T10:58:37;102221.16;;;23.73;39.41
48862;BME280;34681;49.188;-0.374;2023-05-02T11:04:00;102218.44;;;23.43;38.83
48862;BME280;34681;49.188;-0.374;2023-05-02T11:06:31;102218.38;;;23.58;37.80
48862;BME280;34681;49.188;-0.374;2023-05-02T11:11:45;102220.50;;;22.76;38.65
48862;BME280;34681;49.188;-0.374;2023-05-02T11:24:43;102224.56;;;22.50;38.38
48862;BME280;34681;49.188;-0.374;2023-05-02T11:30:06;102206.72;;;23.18;36.89
48862;BME280;34681;49.188;-0.374;2023-05-02T11:35:18;102210.28;;;23.12;37.89
48862;BME280;34681;49.188;-0.374;2023-05-02T11:38:03;102200.97;;;22.76;40.72
48862;BME280;34681;49.188;-0.374;2023-05-02T11:40:30;102204.63;;;22.91;38.63
48862;BME280;34681;49.188;-0.374;2023-05-02T11:42:57;102214.59;;;23.30;36.95
48862;BME280;34681;49.188;-0.374;2023-05-02T11:45:33;102209.94;;;22.86;37.80
48862;BME280;34681;49.188;-0.374;2023-05-02T11:48:00;102211.22;;;22.46;37.58
48862;BME280;34681;49.188;-0.374;2023-05-02T11:50:26;102205.78;;;22.06;37.91
48862;BME280;34681;49.188;-0.374;2023-05-02T11:52:54;102206.03;;;21.97;38.29
48862;BME280;34681;49.188;-0.374;2023-05-02T11:55:20;102207.66;;;21.91;37.73
48862;BME280;34681;49.188;-0.374;2023-05-02T11:57:45;102210.59;;;22.21;37.73
48862;BME280;34681;49.188;-0.374;2023-05-02T12:00:11;102215.91;;;22.45;36.67
48862;BME280;34681;49.188;-0.374;2023-05-02T12:02:42;102221.19;;;22.40;37.26
48862;BME280;34681;49.188;-0.374;2023-05-02T12:05:09;102217.97;;;22.66;36.40
48862;BME280;34681;49.188;-0.374;2023-05-02T12:10:05;102221.06;;;22.19;44.69
48862;BME280;34681;49.188;-0.374;2023-05-02T12:12:31;102224.75;;;21.88;45.24
48862;BME280;34681;49.188;-0.374;2023-05-02T12:14:57;102224.63;;;21.50;47.21
48862;BME280;34681;49.188;-0.374;2023-05-02T12:17:23;102228.03;;;21.38;47.09
48862;BME280;34681;49.188;-0.374;2023-05-02T12:19:49;102222.81;;;21.26;47.62
48862;BME280;34681;49.188;-0.374;2023-05-02T12:22:15;102216.00;;;21.91;46.15
48862;BME280;34681;49.188;-0.374;2023-05-02T12:24:41;102223.94;;;22.02;45.70
48862;BME280;34681;49.188;-0.374;2023-05-02T12:27:16;102214.22;;;21.52;46.71
48862;BME280;34681;49.188;-0.374;2023-05-02T12:29:46;102207.28;;;21.01;48.45
48862;BME280;34681;49.188;-0.374;2023-05-02T12:32:13;102216.44;;;21.18;48.19
48862;BME280;34681;49.188;-0.374;2023-05-02T12:34:39;102210.50;;;21.21;46.30
48862;BME280;34681;49.188;-0.374;2023-05-02T12:37:05;102211.03;;;20.85;47.18
48862;BME280;34681;49.188;-0.374;2023-05-02T12:42:08;102219.59;;;20.51;45.58
48862;BME280;34681;49.188;-0.374;2023-05-02T12:44:41;102210.00;;;21.17;44.57
48862;BME280;34681;49.188;-0.374;2023-05-02T12:47:08;102215.97;;;21.76;43.84
48862;BME280;34681;49.188;-0.374;2023-05-02T12:49:53;102208.66;;;21.52;44.04
48862;BME280;34681;49.188;-0.374;2023-05-02T12:52:20;102211.63;;;21.03;47.11
48862;BME280;34681;49.188;-0.374;2023-05-02T12:54:46;102202.47;;;20.95;46.42
48862;BME280;34681;49.188;-0.374;2023-05-02T12:57:22;102218.78;;;20.98;46.97
48862;BME280;34681;49.188;-0.374;2023-05-02T12:59:50;102209.47;;;20.74;46.96
48862;BME280;34681;49.188;-0.374;2023-05-02T13:02:16;102198.75;;;20.39;47.32
48862;BME280;34681;49.188;-0.374;2023-05-02T13:04:41;102207.09;;;20.31;47.13
48862;BME280;34681;49.188;-0.374;2023-05-02T13:07:07;102199.13;;;20.36;47.96
48862;BME280;34681;49.188;-0.374;2023-05-02T13:09:32;102208.84;;;20.24;47.88
48862;BME280;34681;49.188;-0.374;2023-05-02T13:11:57;102202.59;;;20.38;46.90
48862;BME280;34681;49.188;-0.374;2023-05-02T13:14:23;102194.06;;;20.39;47.45
48862;BME280;34681;49.188;-0.374;2023-05-02T13:16:49;102200.50;;;20.48;48.45
48862;BME280;34681;49.188;-0.374;2023-05-02T13:19:17;102203.66;;;20.20;48.02
48862;BME280;34681;49.188;-0.374;2023-05-02T13:21:43;102192.53;;;20.29;48.31
48862;BME280;34681;49.188;-0.374;2023-05-02T13:24:08;102197.34;;;20.51;48.94
48862;BME280;34681;49.188;-0.374;2023-05-02T13:26:33;102199.78;;;20.62;48.91